Latest Weather Observations for Hughenden

IDQ60801

Issued at 4:35 pm EST Wednesday 30 July 2014 (issued every 30 minutes, with the page automatically refreshed every 10 minutes)

About weather observations | Map of weather stations | Latest weather observations for QLD | Other Formats
Station Details ID: 030022 Name: HUGHENDEN AIRPORT Lat: -20.82 Lon: 144.23 Height: 316.4 m
Data from the previous 72 hours. | See also: Recent months at Hughenden
Date/Time
EST
Temp
°C
App
Temp
°C
Dew
Point
Rel
Hum
%
Delta-T
°C
Wind Press
QNH
hPa
Press
MSL
hPa
Rain
since 9 am
mm
Dir
 
Spd
km/h
Gust
km/h
Spd
kts
Gust
kts
30/04:30pm 26.8 21.9 4.0 23 11.6 NE 19 26 10 14 1016.7 - 0.0
30/04:00pm 27.2 22.2 3.7 22 11.9 E 19 32 10 17 1016.5 - 0.0
30/03:30pm 27.1 21.5 3.6 22 11.9 E 22 33 12 18 1016.6 - 0.0
30/03:00pm 27.3 22.0 3.1 21 12.1 E 20 35 11 19 1016.5 1015.9 0.0
30/02:30pm 27.4 22.1 3.2 21 12.2 E 20 28 11 15 1017.1 - 0.0
30/02:00pm 26.7 20.6 2.6 21 12.0 E 24 33 13 18 1017.4 - 0.0
30/01:30pm 27.6 22.0 3.3 21 12.3 ESE 22 32 12 17 1018.0 - 0.0
30/01:00pm 26.6 20.2 3.2 22 11.7 ESE 26 39 14 21 1018.6 - 0.0
30/12:50pm 26.7 19.9 3.2 22 11.8 E 28 61 15 33 1018.6 - 0.0
30/12:30pm 25.5 19.9 3.5 24 11.0 E 22 35 12 19 1019.2 - 0.0
30/12:00pm 26.0 19.9 2.7 22 11.5 E 24 37 13 20 1019.8 1019.2 0.0
30/11:30am 25.7 19.1 1.8 21 11.6 E 26 37 14 20 1020.3 - 0.0
30/11:00am 26.2 21.4 4.6 25 11.0 ESE 19 28 10 15 1020.8 - 0.0
30/10:30am 24.6 20.1 5.9 30 9.7 E 19 24 10 13 1021.0 - 0.0
30/10:00am 22.7 20.6 8.4 40 7.7 ENE 9 13 5 7 1021.3 - 0.0
30/09:30am 21.7 19.6 8.2 42 7.2 ENE 9 17 5 9 1021.3 - 0.0
30/09:00am 19.9 18.2 8.3 47 6.1 E 7 11 4 6 1021.2 1020.6 0.0
30/08:30am 17.3 16.1 8.2 55 4.7 SSE 4 7 2 4 1021.2 - 0.0
30/08:00am 14.7 14.1 7.3 61 3.7 CALM 0 0 0 0 1021.1 - 0.0
30/07:30am 12.0 10.3 5.9 66 2.9 SE 4 7 2 4 1020.8 - 0.0
30/07:00am 10.7 8.0 5.7 71 2.3 SSE 9 9 5 5 1020.5 - 0.0
30/06:30am 10.5 7.2 4.6 67 2.7 SSE 11 11 6 6 1020.3 - 0.0
30/06:00am 10.9 8.4 4.6 65 2.9 SSE 7 11 4 6 1019.8 1019.2 0.0
30/05:30am 11.3 8.9 4.3 62 3.2 SSE 6 9 3 5 1019.6 - 0.0
30/05:00am 12.6 10.6 4.6 58 3.7 ESE 4 6 2 3 1019.5 - 0.0
30/04:30am 16.2 14.4 7.9 58 4.2 ENE 7 11 4 6 1019.3 - 0.0
30/04:00am 16.3 14.1 7.8 57 4.3 E 9 11 5 6 1019.2 - 0.0
30/03:30am 16.8 14.6 8.0 56 4.5 ENE 9 11 5 6 1019.2 - 0.0
30/03:00am 16.9 14.2 7.3 53 4.9 ENE 11 13 6 7 1019.1 1018.5 0.0
30/02:30am 17.7 14.6 7.4 51 5.3 ENE 13 15 7 8 1019.3 - 0.0
30/02:00am 17.6 14.8 6.8 49 5.5 ENE 11 15 6 8 1019.5 - 0.0
30/01:30am 18.2 14.5 6.4 46 5.9 NE 15 19 8 10 1019.7 - 0.0
30/01:00am 18.0 14.8 4.9 42 6.4 ENE 11 15 6 8 1019.9 - 0.0
30/12:30am 18.3 14.7 4.8 41 6.6 E 13 17 7 9 1020.0 - 0.0
30/12:00am 17.7 14.0 4.3 41 6.4 ESE 13 15 7 8 1019.9 1019.3 0.0
 
Date/Time
EST
Temp
°C
App
Temp
°C
Dew
Point
Rel
Hum
%
Delta-T
°C
Wind Press
QNH
hPa
Press
MSL
hPa
Rain
since 9 am
mm
Dir
 
Spd
km/h
Gust
km/h
Spd
kts
Gust
kts
29/11:30pm 18.4 14.8 4.9 41 6.6 E 13 15 7 8 1019.8 - 0.0
29/11:00pm 18.5 15.2 4.7 40 6.7 E 11 13 6 7 1020.0 - 0.0
29/10:30pm 18.3 14.6 4.5 40 6.7 E 13 15 7 8 1020.0 - 0.0
29/10:00pm 18.6 15.3 4.4 39 6.9 ESE 11 13 6 7 1020.0 - 0.0
29/09:30pm 18.4 15.0 3.8 38 7.0 ESE 11 13 6 7 1019.8 - 0.0
29/09:00pm 18.9 15.4 3.5 36 7.3 ESE 11 13 6 7 1019.6 1019.0 0.0
29/08:30pm 19.5 15.9 2.8 33 7.9 ESE 11 15 6 8 1019.3 - 0.0
29/08:00pm 20.5 16.3 3.7 33 8.1 ESE 15 17 8 9 1019.1 - 0.0
29/07:30pm 20.0 16.4 2.8 32 8.2 ESE 11 13 6 7 1018.8 - 0.0
29/07:00pm 21.6 18.4 3.3 30 8.9 SE 9 11 5 6 1018.6 - 0.0
29/06:30pm 23.1 19.5 3.1 27 9.8 SE 11 13 6 7 1018.2 - 0.0
29/06:00pm 24.8 21.7 3.5 25 10.6 SE 9 11 5 6 1018.1 1017.5 0.0
29/05:30pm 26.4 22.4 3.0 22 11.7 SE 13 19 7 10 1017.8 - 0.0
29/05:00pm 26.9 23.0 3.4 22 11.8 E 13 17 7 9 1017.6 - 0.0
29/04:30pm 27.1 23.2 3.6 22 11.9 SE 13 20 7 11 1017.4 - 0.0
29/04:00pm 27.3 23.1 3.7 22 12.0 E 15 24 8 13 1017.3 - 0.0
29/03:30pm 27.4 23.6 3.8 22 12.0 SE 13 20 7 11 1017.2 - 0.0
29/03:00pm 27.4 24.2 3.2 21 12.2 SW 9 19 5 10 1017.4 1016.7 0.0
29/02:30pm 27.2 24.5 3.7 22 11.9 WNW 7 15 4 8 1017.8 - 0.0
29/02:00pm 26.6 22.8 3.8 23 11.5 S 13 20 7 11 1018.3 - 0.0
29/01:30pm 26.8 23.0 4.0 23 11.6 ESE 13 19 7 10 1018.6 - 0.0
29/01:00pm 26.5 22.7 3.7 23 11.5 ESE 13 19 7 10 1019.1 - 0.0
29/12:30pm 27.0 23.2 4.1 23 11.7 SE 13 17 7 9 1019.6 - 0.0
29/12:00pm 25.9 21.9 4.9 26 10.8 ESE 15 24 8 13 1020.1 1019.5 0.0
29/11:30am 25.6 21.3 5.2 27 10.5 ESE 17 28 9 15 1020.5 - 0.0
29/11:00am 24.7 20.5 7.4 33 9.2 ENE 19 24 10 13 1021.0 - 0.0
29/10:30am 23.2 20.1 7.3 36 8.4 NE 13 17 7 9 1021.5 - 0.0
29/10:00am 22.4 18.8 8.5 41 7.5 ENE 17 20 9 11 1021.6 - 0.0
29/09:30am 21.2 17.3 8.8 45 6.7 NE 19 22 10 12 1021.5 - 0.0
29/09:00am 20.2 16.5 9.5 50 5.8 NE 19 24 10 13 1021.4 1020.8 0.0
29/08:30am 19.4 16.6 9.9 54 5.2 ENE 15 20 8 11 1021.2 - 0.0
29/08:00am 18.9 16.0 9.7 55 5.0 NE 15 20 8 11 1021.0 - 0.0
29/07:30am 18.6 14.9 9.4 55 4.9 ENE 19 24 10 13 1020.7 - 0.0
29/07:00am 18.1 16.2 9.2 56 4.7 ENE 9 15 5 8 1020.7 - 0.0
29/06:30am 17.7 16.2 9.1 57 4.5 ENE 7 11 4 6 1020.4 - 0.0
29/06:00am 17.4 15.0 8.8 57 4.5 ENE 11 13 6 7 1020.1 1019.5 0.0
29/05:30am 17.0 14.6 8.7 58 4.3 ENE 11 13 6 7 1020.0 - 0.0
29/05:00am 16.9 15.3 8.6 58 4.3 E 7 9 4 5 1019.9 - 0.0
29/04:30am 16.6 14.1 8.1 57 4.4 ENE 11 15 6 8 1019.6 - 0.0
29/04:00am 16.8 14.6 7.7 55 4.7 ENE 9 11 5 6 1019.6 - 0.0
29/03:30am 17.3 15.1 7.9 54 4.8 NE 9 11 5 6 1019.6 - 0.0
29/03:00am 17.5 14.8 7.5 52 5.1 ENE 11 17 6 9 1019.4 1018.8 0.0
29/02:30am 17.5 15.2 7.5 52 5.1 E 9 13 5 7 1019.3 - 0.0
29/02:00am 18.3 14.8 7.4 49 5.6 ENE 15 17 8 9 1019.2 - 0.0
29/01:30am 18.9 15.7 7.0 46 6.1 ENE 13 17 7 9 1019.5 - 0.0
29/01:00am 19.8 15.9 6.9 43 6.6 ENE 17 20 9 11 1019.6 - 0.0
29/12:30am 18.5 14.7 3.9 38 7.0 E 13 15 7 8 1019.6 - 0.0
29/12:00am 17.4 14.0 4.0 41 6.4 ESE 11 11 6 6 1019.7 1019.1 0.0
 
Date/Time
EST
Temp
°C
App
Temp
°C
Dew
Point
Rel
Hum
%
Delta-T
°C
Wind Press
QNH
hPa
Press
MSL
hPa
Rain
since 9 am
mm
Dir
 
Spd
km/h
Gust
km/h
Spd
kts
Gust
kts
28/11:30pm 17.5 14.2 4.5 42 6.3 ESE 11 13 6 7 1019.8 - 0.0
28/11:00pm 18.5 16.2 4.7 40 6.7 ESE 6 7 3 4 1019.9 - 0.0
28/10:30pm 18.0 16.7 3.9 39 6.7 CALM 0 0 0 0 1019.8 - 0.0
28/10:00pm 18.9 15.5 3.9 37 7.2 SE 11 13 6 7 1019.7 - 0.0
28/09:30pm 19.9 16.1 4.0 35 7.7 ESE 13 15 7 8 1019.6 - 0.0
28/09:00pm 19.8 16.1 4.3 36 7.5 SSE 13 15 7 8 1019.5 1018.9 0.0
28/08:30pm 19.4 16.0 4.0 36 7.5 SE 11 13 6 7 1019.3 - 0.0
28/08:00pm 19.3 16.2 3.5 35 7.6 SE 9 11 5 6 1019.1 - 0.0
28/07:30pm 20.7 17.9 3.4 32 8.4 SSE 7 9 4 5 1018.9 - 0.0
28/07:00pm 21.9 18.4 3.6 30 8.9 SSE 11 13 6 7 1018.6 - 0.0
28/06:30pm 23.2 19.7 3.7 28 9.6 SSE 11 13 6 7 1018.2 - 0.0
28/06:00pm 24.9 21.4 3.5 25 10.6 SSE 11 13 6 7 1017.9 1017.3 0.0
28/05:30pm 26.4 22.5 3.6 23 11.5 ESE 13 19 7 10 1017.8 - 0.0
28/05:00pm 27.0 22.7 3.5 22 11.9 ENE 15 20 8 11 1017.6 - 0.0
28/04:30pm 27.2 23.0 3.7 22 11.9 ESE 15 24 8 13 1017.6 - 0.0
28/04:00pm 27.4 22.8 3.8 22 12.0 ESE 17 24 9 13 1017.5 - 0.0
28/03:30pm 27.4 24.0 3.8 22 12.0 NNE 11 24 6 13 1017.6 - 0.0
28/03:00pm 27.1 22.9 3.6 22 11.9 SE 15 26 8 14 1017.8 1017.1 0.0
28/02:30pm 27.1 23.7 4.2 23 11.7 E 11 24 6 13 1018.1 - 0.0
28/02:00pm 26.8 22.7 4.6 24 11.4 E 15 20 8 11 1018.6 - 0.0
28/01:30pm 26.7 22.0 5.1 25 11.2 ENE 19 28 10 15 1019.2 - 0.0
28/01:00pm 27.1 23.3 6.0 26 11.1 E 15 22 8 12 1019.8 - 0.0
28/12:30pm 25.8 21.9 5.4 27 10.6 NNE 15 22 8 12 1020.4 - 0.0
28/12:00pm 25.0 21.1 5.2 28 10.1 SE 15 24 8 13 1020.9 1020.3 0.0
28/11:30am 25.3 20.9 5.0 27 10.4 ENE 17 24 9 13 1021.4 - 0.0
28/11:00am 24.7 19.3 6.4 31 9.6 ENE 24 39 13 21 1021.7 - 0.0
28/10:30am 24.2 19.7 6.9 33 9.1 ENE 20 30 11 16 1021.9 - 0.0
28/10:00am 22.5 18.7 9.0 42 7.3 NNE 19 24 10 13 1022.2 - 0.0
28/09:30am 21.7 18.2 10.2 48 6.3 NNE 19 24 10 13 1022.4 - 0.0
28/09:00am 20.1 17.7 11.3 57 4.9 NE 15 24 8 13 1022.4 1021.8 0.0
28/08:30am 18.5 17.2 11.3 63 4.0 NE 9 15 5 8 1022.2 - 0.0
28/08:00am 17.6 16.7 11.4 67 3.4 E 7 11 4 6 1021.9 - 0.0
28/07:30am 15.1 14.2 10.7 75 2.4 SE 6 7 3 4 1021.8 - 0.0
28/07:00am 14.3 13.3 8.9 70 2.8 E 4 7 2 4 1021.4 - 0.0
28/06:30am 15.5 13.9 10.3 71 2.8 NE 9 15 5 8 1021.1 - 0.0
28/06:00am 13.2 11.2 6.1 62 3.4 ENE 6 7 3 4 1020.9 1020.3 0.0
28/05:30am 12.0 9.0 4.2 59 3.6 ENE 9 13 5 7 1020.6 - 0.0
28/05:00am 11.7 10.5 4.7 62 3.2 CALM 0 0 0 0 1020.3 - 0.0
28/04:30am 12.1 10.8 3.9 57 3.7 CALM 0 0 0 0 1020.3 - 0.0
28/04:00am 13.3 11.4 5.0 57 3.9 E 4 9 2 5 1020.1 - 0.0
28/03:30am 15.5 13.5 6.2 54 4.6 E 6 7 3 4 1020.3 - 0.0
28/03:00am 15.8 12.1 6.5 54 4.6 NNE 15 22 8 12 1020.5 1019.8 0.0
28/02:30am 13.6 11.6 4.2 53 4.4 ESE 4 11 2 6 1020.5 - 0.0
28/02:00am 15.2 12.9 4.9 50 4.9 ESE 6 9 3 5 1020.7 - 0.0
28/01:30am 16.9 14.2 5.8 48 5.5 E 9 13 5 7 1020.8 - 0.0
28/01:00am 17.3 14.3 6.2 48 5.5 ESE 11 15 6 8 1020.9 - 0.0
28/12:30am 17.5 14.9 6.1 47 5.7 ESE 9 11 5 6 1021.2 - 0.0
28/12:00am 18.1 15.1 6.0 45 6.0 ESE 11 13 6 7 1021.4 1020.8 0.0
 
Date/Time
EST
Temp
°C
App
Temp
°C
Dew
Point
Rel
Hum
%
Delta-T
°C
Wind Press
QNH
hPa
Press
MSL
hPa
Rain
since 9 am
mm
Dir
 
Spd
km/h
Gust
km/h
Spd
kts
Gust
kts
27/11:30pm 19.2 15.4 5.6 41 6.8 ESE 15 17 8 9 1021.5 - 0.0
27/11:00pm 20.5 16.4 6.4 40 7.2 ESE 17 24 9 13 1021.6 - 0.0
27/10:30pm 19.4 16.2 5.1 39 7.1 E 11 15 6 8 1021.6 - 0.0
27/10:00pm 20.7 16.2 5.9 38 7.5 ESE 19 22 10 12 1021.6 - 0.0
27/09:30pm 19.8 15.9 5.5 39 7.1 SE 15 17 8 9 1021.5 - 0.0
27/09:00pm 19.1 15.4 4.5 38 7.1 SE 13 13 7 7 1021.4 1020.8 0.0
27/08:30pm 19.7 16.5 5.0 38 7.3 SE 11 13 6 7 1021.3 - 0.0
27/08:00pm 20.6 17.0 5.0 36 7.8 SE 13 13 7 7 1021.0 - 0.0
27/07:30pm 21.3 18.0 4.4 33 8.4 SE 11 13 6 7 1020.7 - 0.0
27/07:00pm 22.9 19.3 4.9 31 9.1 SSE 13 15 7 8 1020.4 - 0.0
27/06:30pm 23.6 20.3 4.5 29 9.6 SE 11 13 6 7 1019.9 - 0.0
27/06:00pm 25.0 21.6 4.2 26 10.5 SE 11 15 6 8 1019.6 1019.0 0.0
27/05:30pm 26.4 22.3 4.2 24 11.3 SE 15 20 8 11 1019.4 - 0.0
27/05:00pm 27.1 22.6 4.2 23 11.7 ESE 17 24 9 13 1019.3 - 0.0

Other Formats:

Comma delimited format used in spreadsheet applications
http://www.bom.gov.au/fwo/IDQ60801/IDQ60801.94343.axf

JavaScript Object Notation format (JSON) in row-major order
http://www.bom.gov.au/fwo/IDQ60801/IDQ60801.94343.json